Meteo Giornale » Osservazioni meteo Stati Uniti (USA) » Oceanside Camp Pendleton

ore: 11:52 - Osservazioni Meteo Oceanside Camp Pendleton
Lat. 33° 18' N Lon. 117° 21' W Alt. 23 metri s.l.m.

sereno

28 °C

Sereno

Temp. 24 Ore

14 °C

29 °C

Sud-Ovest

14.8 Km/h

Dew point 17 °C

Umidità 51 %

Visibilità  10 Km

Il sole sorge alle ore 06:23

Il sole tramonta alle ore 19:14

Data e Ora Cielo e Fenomeni T °C DP °C Um. % Pres. hPa Vis. km Vento km/h
Oggi h: 11:52 sereno Sereno 28 17 51 1015 10 SO 14.8
Oggi h: 10:52 sereno Sereno 28 17 51 1015 10 S/SO 14.8
Oggi h: 09:52 sereno Sereno 25 17 61 1015 10 N 0
Oggi h: 08:52 sereno Sereno 22 17 73 1015 10 N 0
Oggi h: 07:52 poco_nuvoloso Poco Nuvoloso 19 16 82 1015 10 N 0
Oggi h: 06:52 poco_nuvoloso Poco Nuvoloso 14 14 100 1015 10 N 5.5
Oggi h: 06:47 nuvoloso Nuvoloso 14 14 100 1015 14 N 5.5
Oggi h: 06:16 molto_nuvoloso Molto Nuvoloso 15 14 93 1014 10 N 0
Oggi h: 05:52 poco_nuvoloso Poco Nuvoloso 16 15 93 1014 10 N 0
Oggi h: 04:52 sereno Sereno 17 16 93 1014 10 N 0
Oggi h: 04:10 nuvoloso Nuvoloso 18 18 100 1014 10 N 5.5
Oggi h: 03:52 molto_nuvoloso Molto Nuvoloso 18 17 93 1014 10 N 0
Oggi h: 00:52 coperto Coperto 17 17 100 1014 14 N 5.5
Oggi h: 00:47 coperto Coperto 17 17 100 1014 14 N 5.5
Oggi h: 00:23 nuvoloso Nuvoloso 16 15 93 1014 14 N 0
Ieri h: 23:52 nuvoloso Nuvoloso 16 16 100 1014 14 N 0
Ieri h: 22:52 nuvoloso Nuvoloso 18 17 93 1014 14 N 0
Ieri h: 21:52 poco_nuvoloso Poco Nuvoloso 19 18 93 1014 10 N 5.5
Ieri h: 20:59 molto_nuvoloso Molto Nuvoloso 22 18 78 1013 10 S 7.4
Ieri h: 20:52 nuvoloso Nuvoloso 22 19 83 1013 10 S/SE 11.1
Ieri h: 19:52 poco_nuvoloso Poco Nuvoloso 22 19 83 1012 10 S 13
Ieri h: 18:52 sereno Sereno 24 19 73 1011 10 S/SO 9.3
Ieri h: 17:52 sereno Sereno 26 19 65 1012 10 SO 7.4
Ieri h: 16:52 sereno Sereno 27 19 61 1012 10 SO 18.5
Ieri h: 15:52 sereno Sereno 28 19 58 1012 10 SO 16.7
Ieri h: 14:52 sereno Sereno 29 18 51 1012 10 O/SO 16.7
Ieri h: 13:52 sereno Sereno 29 19 54 1013 10 SO 14.8
Ieri h: 12:52 sereno Sereno 29 18 51 1013 10 S/SO 13